createdAt,value
2022-10-19T00:00:51.136Z,14.73
2022-10-19T00:03:20.783Z,15.00
2022-10-19T00:05:49.786Z,16.43
2022-10-19T00:08:16.391Z,11.83
2022-10-19T00:10:43.000Z,9.23
2022-10-19T00:13:09.623Z,10.70
2022-10-19T00:15:40.408Z,13.63
2022-10-19T00:18:08.456Z,14.73
2022-10-19T00:20:36.688Z,11.37
2022-10-19T00:23:03.923Z,10.33
2022-10-19T00:25:30.499Z,9.93
2022-10-19T00:27:57.092Z,9.93
2022-10-19T00:30:23.749Z,9.07
2022-10-19T00:32:50.411Z,12.77
2022-10-19T00:35:17.049Z,12.50
2022-10-19T00:37:43.659Z,9.40
2022-10-19T00:40:10.588Z,12.90
2022-10-19T00:42:37.422Z,11.37
2022-10-19T00:45:13.868Z,10.70
2022-10-19T00:47:41.237Z,7.93
2022-10-19T00:50:08.770Z,11.30
2022-10-19T00:52:35.646Z,12.23
2022-10-19T00:55:03.042Z,9.90
2022-10-19T00:57:31.354Z,15.80
2022-10-19T00:59:59.948Z,13.17
2022-10-19T01:02:26.694Z,13.20
2022-10-19T01:04:53.770Z,9.83
2022-10-19T01:07:20.745Z,7.73
2022-10-19T01:09:47.332Z,17.80
2022-10-19T01:12:41.700Z,16.30
2022-10-19T01:15:23.601Z,9.50
2022-10-19T01:18:23.733Z,13.90
2022-10-19T01:21:22.551Z,11.50
2022-10-19T01:24:05.933Z,12.53
2022-10-19T01:27:11.875Z,13.03
2022-10-19T01:30:01.536Z,14.50
2022-10-19T01:32:58.625Z,12.33
2022-10-19T01:35:37.857Z,14.63
2022-10-19T01:38:22.955Z,19.70
2022-10-19T01:41:14.716Z,10.93
2022-10-19T01:43:56.376Z,19.80
2022-10-19T01:46:39.426Z,14.23
2022-10-19T01:49:17.611Z,11.90
2022-10-19T01:51:53.846Z,16.33
2022-10-19T01:54:22.505Z,11.40
2022-10-19T01:56:50.252Z,27.73
2022-10-19T01:59:20.014Z,15.97
2022-10-19T02:01:48.835Z,16.37
2022-10-19T02:04:18.681Z,13.93
2022-10-19T02:06:46.025Z,18.70
2022-10-19T02:09:18.023Z,15.50
2022-10-19T02:11:54.707Z,19.33
2022-10-19T02:14:27.611Z,14.57
2022-10-19T02:17:08.757Z,16.50
2022-10-19T02:19:36.138Z,14.33
2022-10-19T02:22:03.276Z,11.60
2022-10-19T02:24:29.883Z,16.37
2022-10-19T02:26:56.665Z,15.33
2022-10-19T02:29:23.331Z,12.20
2022-10-19T02:31:50.011Z,14.33
2022-10-19T02:34:16.881Z,12.67
2022-10-19T02:36:43.638Z,10.93
2022-10-19T02:39:10.413Z,11.33
2022-10-19T02:41:42.526Z,12.80
2022-10-19T02:44:21.557Z,16.23
2022-10-19T02:46:57.144Z,13.30
2022-10-19T02:49:25.297Z,18.83
2022-10-19T02:52:09.077Z,16.63
2022-10-19T02:54:36.185Z,16.20
2022-10-19T02:57:09.617Z,12.90
2022-10-19T02:59:36.199Z,11.60
2022-10-19T03:02:02.809Z,10.80
2022-10-19T03:04:29.379Z,13.20
2022-10-19T03:06:55.984Z,13.00
2022-10-19T03:09:22.593Z,11.43
2022-10-19T03:11:49.187Z,13.10
2022-10-19T03:14:15.787Z,10.60
2022-10-19T03:16:42.361Z,11.97
2022-10-19T03:19:09.245Z,13.90
2022-10-19T03:21:35.860Z,14.20
2022-10-19T03:24:02.501Z,13.93
2022-10-19T03:26:29.086Z,12.23
2022-10-19T03:28:55.726Z,12.33
2022-10-19T03:31:22.414Z,12.63
2022-10-19T03:33:49.674Z,11.97
2022-10-19T03:36:26.731Z,13.53
2022-10-19T03:38:55.414Z,13.10
2022-10-19T03:41:24.252Z,14.63
2022-10-19T03:43:51.390Z,15.13
2022-10-19T03:46:18.678Z,10.97
2022-10-19T03:48:45.452Z,8.83
2022-10-19T03:51:15.055Z,18.00
2022-10-19T03:53:42.546Z,13.00
2022-10-19T03:56:11.960Z,11.57
2022-10-19T03:58:40.045Z,16.57
2022-10-19T04:01:15.888Z,11.83
2022-10-19T04:03:43.264Z,14.57
2022-10-19T04:06:18.244Z,16.87
2022-10-19T04:08:49.161Z,9.30
2022-10-19T04:11:22.712Z,12.30
2022-10-19T04:13:50.769Z,10.77
2022-10-19T04:16:18.213Z,14.80
2022-10-19T04:18:45.182Z,17.43
2022-10-19T04:21:22.890Z,11.83
2022-10-19T04:23:54.536Z,16.20
2022-10-19T04:26:21.146Z,9.93
2022-10-19T04:28:47.767Z,9.73
2022-10-19T04:31:14.391Z,10.50
2022-10-19T04:33:41.749Z,11.33
2022-10-19T04:36:10.188Z,15.67
2022-10-19T04:38:37.571Z,16.17
2022-10-19T04:41:10.383Z,13.60
2022-10-19T04:43:37.923Z,12.57
2022-10-19T04:46:15.390Z,14.03
2022-10-19T04:48:42.832Z,14.17
2022-10-19T04:51:10.181Z,15.67
2022-10-19T04:53:38.692Z,14.90
2022-10-19T04:56:11.329Z,13.23
2022-10-19T04:58:37.908Z,9.33
2022-10-19T05:01:12.705Z,13.83
2022-10-19T05:03:39.709Z,14.20
2022-10-19T05:06:07.333Z,17.60
2022-10-19T05:08:34.885Z,11.80
2022-10-19T05:11:04.184Z,10.70
2022-10-19T05:13:34.492Z,13.67
2022-10-19T05:16:04.368Z,16.93
2022-10-19T05:18:30.959Z,16.97
2022-10-19T05:21:04.568Z,10.63
2022-10-19T05:26:04.230Z,18.60
2022-10-19T05:28:31.235Z,11.93
2022-10-19T05:31:06.727Z,13.10
2022-10-19T05:33:33.407Z,13.37
2022-10-19T05:35:59.972Z,11.03
2022-10-19T05:38:26.560Z,10.90
2022-10-19T05:40:53.666Z,13.20
2022-10-19T05:43:20.420Z,14.20
2022-10-19T05:45:46.990Z,11.77
2022-10-19T05:48:13.664Z,10.23
2022-10-19T05:50:40.233Z,14.50
2022-10-19T05:53:06.803Z,13.33
2022-10-19T05:55:35.475Z,15.30
2022-10-19T05:58:02.044Z,16.83
2022-10-19T06:00:28.851Z,18.77
2022-10-19T06:02:59.103Z,19.70
2022-10-19T06:05:26.253Z,18.13
2022-10-19T06:07:52.819Z,22.67
2022-10-19T06:10:20.909Z,20.50
2022-10-19T06:12:47.796Z,27.60
2022-10-19T06:15:14.421Z,16.17
2022-10-19T06:17:40.984Z,19.23
2022-10-19T06:20:07.907Z,19.20
2022-10-19T06:22:34.488Z,20.53
2022-10-19T06:25:01.059Z,17.50
2022-10-19T06:27:30.346Z,20.60
2022-10-19T06:29:56.947Z,19.03
2022-10-19T06:32:23.535Z,15.33
2022-10-19T06:34:53.061Z,21.43
2022-10-19T06:37:22.307Z,24.37
2022-10-19T06:39:48.954Z,18.63
2022-10-19T06:42:15.814Z,18.03
2022-10-19T06:44:42.392Z,16.70
2022-10-19T06:47:08.968Z,18.00
2022-10-19T06:49:35.881Z,20.00
2022-10-19T06:52:02.950Z,16.07
2022-10-19T06:54:29.656Z,26.23
2022-10-19T06:56:56.231Z,25.03
2022-10-19T06:59:22.808Z,21.97
2022-10-19T07:01:49.402Z,25.33
2022-10-19T07:04:16.002Z,16.50
2022-10-19T07:06:42.711Z,19.07
2022-10-19T07:09:09.318Z,17.23
2022-10-19T07:11:35.907Z,17.93
2022-10-19T07:14:02.529Z,21.17
2022-10-19T07:16:29.116Z,20.17
2022-10-19T07:18:56.167Z,21.10
2022-10-19T07:21:23.848Z,16.83
2022-10-19T07:23:50.519Z,20.10
2022-10-19T07:26:21.226Z,16.10
2022-10-19T07:28:49.156Z,15.00
2022-10-19T07:31:18.287Z,20.63
2022-10-19T07:33:44.971Z,23.60
2022-10-19T07:36:13.455Z,19.50
2022-10-19T07:38:40.674Z,17.50
2022-10-19T07:41:12.521Z,20.63
2022-10-19T07:43:40.035Z,18.30
2022-10-19T07:46:10.509Z,16.83
2022-10-19T07:48:37.110Z,15.80
2022-10-19T07:51:06.642Z,18.47
2022-10-19T07:53:34.206Z,18.50
2022-10-19T07:56:06.889Z,17.43
2022-10-19T07:58:34.319Z,15.30
2022-10-19T08:01:09.335Z,16.13
2022-10-19T08:06:24.469Z,13.43
2022-10-19T08:08:51.768Z,19.17
2022-10-19T08:11:22.941Z,14.93
2022-10-19T08:13:49.992Z,15.43
2022-10-19T08:16:28.616Z,14.07
2022-10-19T08:19:01.025Z,14.33
2022-10-19T08:21:29.095Z,14.47
2022-10-19T08:23:55.846Z,11.47
2022-10-19T08:26:22.509Z,7.80
2022-10-19T08:28:49.201Z,11.30
2022-10-19T08:31:21.145Z,13.60
2022-10-19T08:33:50.880Z,13.50
2022-10-19T08:36:19.589Z,9.37
2022-10-19T08:38:48.302Z,9.07
2022-10-19T08:41:30.329Z,6.80
2022-10-19T08:44:16.277Z,11.53
2022-10-19T08:46:52.005Z,11.30
2022-10-19T08:49:22.831Z,10.33
2022-10-19T08:51:58.271Z,11.90
2022-10-19T08:54:35.723Z,6.30
2022-10-19T08:57:07.206Z,9.80
2022-10-19T09:00:14.385Z,7.07
2022-10-19T09:02:58.892Z,10.10
2022-10-19T09:05:35.649Z,9.80
2022-10-19T09:08:02.674Z,8.27
2022-10-19T09:10:35.803Z,8.80
2022-10-19T09:13:11.952Z,13.73
2022-10-19T09:15:45.169Z,6.10
2022-10-19T09:18:19.800Z,6.33
2022-10-19T09:20:49.553Z,6.90
2022-10-19T09:23:29.904Z,5.90
2022-10-19T09:25:58.045Z,5.77
2022-10-19T09:28:44.531Z,6.00
2022-10-19T09:31:43.289Z,6.13
2022-10-19T09:34:20.956Z,7.53
2022-10-19T09:36:53.503Z,6.97
2022-10-19T09:39:20.900Z,5.30
2022-10-19T09:42:04.730Z,5.77
2022-10-19T09:44:32.194Z,4.60
2022-10-19T09:47:36.550Z,5.60
2022-10-19T09:50:08.543Z,5.50
2022-10-19T09:52:38.412Z,3.93
2022-10-19T09:55:06.335Z,5.73
2022-10-19T09:57:33.759Z,7.57
2022-10-19T10:00:00.491Z,5.77
2022-10-19T10:02:33.425Z,5.07
2022-10-19T10:05:07.206Z,5.40
2022-10-19T10:07:37.596Z,8.10
2022-10-19T10:10:32.350Z,7.33
2022-10-19T10:13:00.457Z,9.03
2022-10-19T10:15:30.623Z,7.50
2022-10-19T10:17:58.468Z,7.03
2022-10-19T10:20:28.244Z,4.77
2022-10-19T10:23:01.598Z,3.53
2022-10-19T10:25:33.556Z,3.80
2022-10-19T10:28:20.720Z,3.30
2022-10-19T10:30:52.705Z,4.00
2022-10-19T10:33:40.335Z,3.20
2022-10-19T10:36:12.142Z,4.47
2022-10-19T10:38:46.940Z,4.77
2022-10-19T10:41:20.059Z,4.90
2022-10-19T10:44:08.485Z,6.83
2022-10-19T10:46:55.984Z,5.33
2022-10-19T10:49:33.921Z,4.30
2022-10-19T10:52:06.420Z,4.90
2022-10-19T10:54:33.735Z,4.67
2022-10-19T10:57:13.836Z,5.40
2022-10-19T11:00:02.699Z,6.10
2022-10-19T11:02:54.260Z,5.40
2022-10-19T11:05:33.340Z,3.03
2022-10-19T11:08:14.403Z,5.43
2022-10-19T11:10:51.368Z,2.53
2022-10-19T11:13:21.248Z,4.67
2022-10-19T11:16:02.423Z,3.03
2022-10-19T11:18:57.336Z,3.97
2022-10-19T11:21:34.273Z,3.30
2022-10-19T11:24:46.381Z,5.63
2022-10-19T11:27:37.056Z,6.87
2022-10-19T11:30:23.410Z,6.30
2022-10-19T11:33:04.109Z,5.93
2022-10-19T11:35:39.692Z,3.67
2022-10-19T11:38:48.132Z,4.50
2022-10-19T11:41:48.292Z,4.93
2022-10-19T11:44:30.817Z,4.47
2022-10-19T11:47:43.087Z,7.20
2022-10-19T11:50:53.826Z,5.10
2022-10-19T11:53:44.227Z,2.90
2022-10-19T11:56:20.019Z,12.43
2022-10-19T11:59:05.598Z,2.57
2022-10-19T12:01:56.803Z,3.80
2022-10-19T12:04:40.689Z,4.10
2022-10-19T12:07:23.229Z,4.47
2022-10-19T12:10:10.480Z,7.40
2022-10-19T12:12:40.287Z,4.20
2022-10-19T12:15:28.497Z,3.63
2022-10-19T12:18:00.831Z,4.80
2022-10-19T12:20:39.807Z,4.93
2022-10-19T12:23:26.533Z,3.53
2022-10-19T12:25:56.114Z,4.60
2022-10-19T12:28:27.997Z,3.73
2022-10-19T12:30:55.786Z,3.60
2022-10-19T12:33:49.708Z,3.50
2022-10-19T12:36:28.894Z,4.73
2022-10-19T12:39:01.247Z,4.23
2022-10-19T12:41:53.045Z,5.63
2022-10-19T12:44:58.841Z,6.30
2022-10-19T12:47:26.752Z,4.97
2022-10-19T12:49:55.561Z,2.90
2022-10-19T12:52:48.216Z,4.90
2022-10-19T12:55:26.884Z,4.73
2022-10-19T12:58:00.107Z,8.20
2022-10-19T13:00:31.575Z,1.47
2022-10-19T13:03:03.304Z,6.23
2022-10-19T13:05:31.555Z,6.27
2022-10-19T13:07:59.183Z,9.60
2022-10-19T13:10:28.024Z,1.97
2022-10-19T13:12:55.385Z,5.63
2022-10-19T13:15:49.875Z,3.53
2022-10-19T13:18:54.852Z,4.37
2022-10-19T13:21:58.328Z,2.80
2022-10-19T13:24:24.858Z,5.43
2022-10-19T13:27:03.371Z,3.77
2022-10-19T13:29:39.116Z,2.20
2022-10-19T13:32:44.085Z,4.27
2022-10-19T13:35:34.407Z,6.53
2022-10-19T13:38:20.432Z,3.50
2022-10-19T13:40:47.287Z,8.10
2022-10-19T13:43:24.502Z,4.00
2022-10-19T13:46:14.839Z,7.10
2022-10-19T13:48:56.477Z,5.97
2022-10-19T13:51:37.194Z,2.80
2022-10-19T13:54:44.371Z,5.93
2022-10-19T13:57:41.992Z,9.23
2022-10-19T14:00:21.474Z,4.07
2022-10-19T14:03:26.382Z,5.63
2022-10-19T14:06:03.877Z,7.80
2022-10-19T14:09:04.776Z,6.50
2022-10-19T14:11:35.252Z,6.13
2022-10-19T14:14:12.666Z,5.07
2022-10-19T14:17:09.661Z,5.97
2022-10-19T14:19:45.997Z,5.77
2022-10-19T14:22:26.153Z,4.63
2022-10-19T14:25:14.976Z,3.83
2022-10-19T14:27:41.981Z,4.60
2022-10-19T14:30:26.117Z,9.37
2022-10-19T14:32:56.810Z,3.67
2022-10-19T14:35:33.125Z,5.50
2022-10-19T14:38:00.345Z,5.10
2022-10-19T14:40:32.963Z,4.60
2022-10-19T14:43:00.961Z,3.97
2022-10-19T14:45:30.001Z,4.40
2022-10-19T14:48:07.444Z,2.70
2022-10-19T14:50:51.142Z,4.43
2022-10-19T14:53:42.836Z,3.20
2022-10-19T14:56:17.470Z,3.80
2022-10-19T14:59:06.223Z,9.10
2022-10-19T15:01:33.857Z,4.77
2022-10-19T15:04:00.545Z,5.33
2022-10-19T15:06:30.332Z,3.23
2022-10-19T15:09:03.347Z,2.93
2022-10-19T15:11:31.199Z,4.13
2022-10-19T15:14:12.704Z,5.33
2022-10-19T15:16:39.239Z,5.10
2022-10-19T15:19:17.509Z,7.03
2022-10-19T15:21:44.878Z,9.37
2022-10-19T15:24:28.034Z,6.10
2022-10-19T15:27:08.412Z,3.97
2022-10-19T15:29:35.984Z,7.10
2022-10-19T15:32:16.624Z,5.73
2022-10-19T15:34:45.466Z,7.37
2022-10-19T15:37:21.379Z,4.80
2022-10-19T15:39:48.699Z,4.57
2022-10-19T15:42:22.096Z,4.83
2022-10-19T15:44:48.724Z,5.50
2022-10-19T15:47:15.384Z,5.20
2022-10-19T15:49:41.920Z,5.23
2022-10-19T15:52:19.468Z,5.33
2022-10-19T15:54:54.538Z,4.40
2022-10-19T15:57:27.352Z,3.70
2022-10-19T15:59:55.716Z,5.23
2022-10-19T16:02:24.925Z,4.50
2022-10-19T16:04:53.206Z,6.83
2022-10-19T16:07:29.051Z,3.73
2022-10-19T16:09:56.476Z,3.63
2022-10-19T16:12:24.696Z,4.20
2022-10-19T16:14:51.359Z,6.70
2022-10-19T16:17:18.125Z,4.83
2022-10-19T16:19:45.416Z,4.83
2022-10-19T16:22:13.486Z,13.97
2022-10-19T16:24:40.601Z,5.00
2022-10-19T16:27:07.927Z,5.90
2022-10-19T16:29:34.901Z,4.40
2022-10-19T16:32:01.567Z,6.87
2022-10-19T16:34:28.300Z,3.50
2022-10-19T16:36:55.042Z,10.03
2022-10-19T16:39:21.676Z,4.43
2022-10-19T16:41:48.624Z,6.07
2022-10-19T16:44:15.783Z,24.77
2022-10-19T16:46:42.392Z,8.30
2022-10-19T16:49:09.059Z,13.33
2022-10-19T16:51:39.485Z,11.40
2022-10-19T16:54:08.087Z,9.77
2022-10-19T16:56:35.213Z,5.33
2022-10-19T16:59:06.467Z,7.00
2022-10-19T17:01:34.624Z,6.27
2022-10-19T17:04:01.257Z,8.83
2022-10-19T17:06:28.596Z,4.20
2022-10-19T17:11:45.412Z,6.23
2022-10-19T17:14:12.985Z,6.50
2022-10-19T17:16:40.274Z,7.50
2022-10-19T17:19:08.593Z,4.37
2022-10-19T17:21:38.484Z,4.60
2022-10-19T17:24:07.524Z,4.40
2022-10-19T17:26:45.097Z,5.67
2022-10-19T17:29:14.231Z,6.60
2022-10-19T17:31:41.578Z,7.83
2022-10-19T17:34:09.255Z,6.90
2022-10-19T17:36:38.423Z,5.40
2022-10-19T17:39:11.186Z,10.17
2022-10-19T17:41:38.016Z,7.93
2022-10-19T17:44:05.531Z,15.40
2022-10-19T17:46:34.806Z,7.27
2022-10-19T17:49:01.614Z,11.17
2022-10-19T17:51:30.627Z,7.87
2022-10-19T17:54:00.099Z,4.70
2022-10-19T17:56:27.939Z,8.07
2022-10-19T17:58:56.084Z,7.20
2022-10-19T18:01:23.307Z,7.30
2022-10-19T18:03:50.725Z,10.47
2022-10-19T18:06:26.465Z,7.87
2022-10-19T18:08:55.716Z,7.07
2022-10-19T18:11:28.196Z,9.90
2022-10-19T18:13:57.072Z,7.07
2022-10-19T18:16:28.164Z,7.97
2022-10-19T18:18:56.860Z,6.30
2022-10-19T18:21:30.405Z,7.53
2022-10-19T18:23:59.442Z,11.53
2022-10-19T18:26:28.454Z,9.80
2022-10-19T18:28:56.637Z,9.37
2022-10-19T18:31:26.027Z,5.60
2022-10-19T18:33:57.523Z,8.63
2022-10-19T18:36:24.478Z,7.23
2022-10-19T18:38:56.689Z,9.33
2022-10-19T18:41:24.264Z,6.90
2022-10-19T18:43:53.235Z,7.67
2022-10-19T18:46:21.383Z,7.07
2022-10-19T18:48:48.176Z,6.50
2022-10-19T18:51:15.525Z,7.37
2022-10-19T18:53:43.050Z,10.40
2022-10-19T18:56:12.590Z,9.80
2022-10-19T18:58:39.684Z,20.67
2022-10-19T19:01:10.468Z,14.63
2022-10-19T19:03:39.364Z,13.23
2022-10-19T19:06:09.193Z,11.40
2022-10-19T19:08:35.914Z,14.90
2022-10-19T19:11:15.736Z,21.33
2022-10-19T19:13:47.104Z,19.00
2022-10-19T19:16:13.708Z,28.30
2022-10-19T19:18:40.421Z,30.00
2022-10-19T19:21:15.224Z,19.80
2022-10-19T19:23:42.185Z,37.97
2022-10-19T19:26:10.208Z,24.00
2022-10-19T19:28:39.274Z,7.07
2022-10-19T19:31:09.223Z,5.50
2022-10-19T19:33:36.207Z,11.73
2022-10-19T19:36:08.099Z,6.07
2022-10-19T19:38:36.034Z,7.37
2022-10-19T19:41:07.180Z,6.23
2022-10-19T19:43:36.920Z,7.90
2022-10-19T19:46:14.232Z,9.83
2022-10-19T19:48:42.746Z,9.00
2022-10-19T19:51:11.950Z,8.20
2022-10-19T19:53:39.067Z,9.47
2022-10-19T19:56:10.252Z,6.90
2022-10-19T19:58:37.243Z,6.50
2022-10-19T20:01:16.412Z,8.73
2022-10-19T20:03:43.434Z,10.10
2022-10-19T20:06:10.615Z,10.57
2022-10-19T20:08:37.824Z,16.37
2022-10-19T20:11:10.399Z,7.90
2022-10-19T20:13:37.695Z,8.87
2022-10-19T20:16:09.694Z,6.70
2022-10-19T20:18:36.330Z,6.67
2022-10-19T20:21:04.538Z,13.07
2022-10-19T20:23:31.392Z,7.40
2022-10-19T20:25:58.227Z,7.97
2022-10-19T20:28:25.735Z,9.37
2022-10-19T20:31:07.114Z,6.70
2022-10-19T20:33:36.160Z,7.33
2022-10-19T20:36:10.505Z,7.67
2022-10-19T20:38:38.735Z,11.53
2022-10-19T20:41:09.541Z,9.83
2022-10-19T20:43:37.354Z,12.00
2022-10-19T20:46:27.534Z,10.90
2022-10-19T20:48:56.324Z,8.83
2022-10-19T20:51:32.530Z,10.33
2022-10-19T20:54:01.731Z,23.17
2022-10-19T20:56:31.361Z,6.50
2022-10-19T20:59:00.087Z,7.90
2022-10-19T21:01:28.032Z,13.63
2022-10-19T21:03:57.058Z,7.83
2022-10-19T21:06:25.748Z,10.47
2022-10-19T21:08:53.272Z,8.13
2022-10-19T21:11:25.796Z,8.63
2022-10-19T21:13:57.844Z,9.97
2022-10-19T21:16:34.223Z,8.30
2022-10-19T21:19:02.880Z,11.93
2022-10-19T21:21:32.263Z,10.10
2022-10-19T21:24:01.304Z,12.23
2022-10-19T21:26:28.655Z,10.17
2022-10-19T21:28:55.840Z,10.10
2022-10-19T21:31:24.655Z,8.47
2022-10-19T21:33:52.005Z,11.37
2022-10-19T21:36:19.737Z,10.70
2022-10-19T21:38:46.594Z,9.63
2022-10-19T21:41:16.109Z,8.70
2022-10-19T21:43:43.177Z,11.93
2022-10-19T21:46:15.506Z,10.70
2022-10-19T21:48:42.899Z,7.93
2022-10-19T21:51:35.631Z,11.67
2022-10-19T21:54:04.032Z,13.80
2022-10-19T21:56:31.672Z,11.33
2022-10-19T21:58:58.282Z,12.23
2022-10-19T22:01:27.087Z,10.70
2022-10-19T22:03:57.751Z,14.23
2022-10-19T22:06:25.322Z,11.93
2022-10-19T22:08:52.064Z,12.23
2022-10-19T22:11:19.403Z,9.10
2022-10-19T22:13:46.873Z,11.77
2022-10-19T22:16:16.574Z,12.53
2022-10-19T22:18:43.918Z,13.33
2022-10-19T22:21:14.349Z,10.23
2022-10-19T22:23:41.519Z,13.80
2022-10-19T22:26:13.393Z,11.07
2022-10-19T22:28:39.995Z,14.83
2022-10-19T22:31:06.689Z,11.37
2022-10-19T22:33:34.645Z,16.23
2022-10-19T22:36:03.347Z,17.93
2022-10-19T22:38:29.979Z,9.57
2022-10-19T22:40:56.616Z,12.87
2022-10-19T22:43:23.191Z,13.30
2022-10-19T22:45:50.029Z,14.33
2022-10-19T22:48:17.540Z,14.80
2022-10-19T22:50:44.880Z,10.83
2022-10-19T22:53:12.023Z,18.50
2022-10-19T22:55:38.795Z,14.40
2022-10-19T22:58:07.605Z,11.33
2022-10-19T23:00:34.257Z,11.93
2022-10-19T23:03:00.905Z,14.97
2022-10-19T23:05:27.517Z,15.53
2022-10-19T23:07:54.145Z,15.17
2022-10-19T23:10:20.731Z,13.80
2022-10-19T23:12:54.440Z,13.00
2022-10-19T23:15:21.629Z,14.20
2022-10-19T23:17:48.326Z,14.23
2022-10-19T23:20:14.976Z,15.47
2022-10-19T23:22:41.563Z,18.47
2022-10-19T23:25:08.676Z,14.50
2022-10-19T23:27:35.705Z,11.70
2022-10-19T23:30:03.933Z,12.77
2022-10-19T23:32:30.544Z,10.03
2022-10-19T23:34:57.455Z,15.60
2022-10-19T23:37:24.105Z,20.60
2022-10-19T23:39:50.739Z,12.83
2022-10-19T23:42:17.358Z,15.77
2022-10-19T23:44:43.977Z,12.07
2022-10-19T23:47:10.788Z,10.07
2022-10-19T23:49:37.368Z,10.57
2022-10-19T23:52:04.172Z,17.00
2022-10-19T23:54:30.800Z,11.90
2022-10-19T23:56:57.389Z,16.40
2022-10-19T23:59:24.007Z,14.80
